Time;durP1;ratioP1;P1;durP2;ratioP2;P2;SDS_P1;SDS_P2;PMS_P1;PMS_P2;Temp;Humidity;BMP_temperature;BMP_pressure;BME280_temperature;BME280_humidity;BME280_pressure;Samples;Min_cycle;Max_cycle;Signal;HPM_P1;HPM_P2
2022/12/29 00:01:49;;;;;;;3.65;3.30;;;10.00;99.90;;;;;;4988130;28;20057;-69
2022/12/29 00:04:15;;;;;;;3.35;3.15;;;9.50;99.90;;;;;;4968006;28;20085;-68
2022/12/29 00:06:42;;;;;;;3.78;2.90;;;9.80;99.90;;;;;;4978662;28;20113;-68
2022/12/29 00:09:08;;;;;;;3.13;2.83;;;10.00;99.90;;;;;;4977562;28;20431;-68
2022/12/29 00:11:34;;;;;;;3.25;2.58;;;9.40;99.90;;;;;;4996878;28;20392;-69
2022/12/29 00:16:45;;;;;;;2.80;2.40;;;9.50;99.90;;;;;;4955755;28;20050;-69
2022/12/29 00:36:08;;;;;;;4.65;4.35;;;9.50;99.90;;;;;;4981523;28;20156;-69
2022/12/29 00:44:13;;;;;;;4.10;3.80;;;9.60;99.90;;;;;;4982243;28;20054;-69
2022/12/29 00:46:41;;;;;;;3.85;3.17;;;10.10;99.90;;;;;;5000796;28;20045;-68
2022/12/29 00:51:55;;;;;;;3.53;3.13;;;9.80;99.90;;;;;;4982150;28;20057;-69
2022/12/29 00:54:21;;;;;;;5.53;3.72;;;9.60;99.90;;;;;;4981677;28;20559;-69
2022/12/29 00:56:51;;;;;;;3.72;3.42;;;10.20;99.90;;;;;;4973619;28;20092;-68
2022/12/29 00:59:18;;;;;;;4.30;2.90;;;10.20;99.90;;;;;;4982076;28;21388;-69
2022/12/29 01:01:44;;;;;;;3.55;3.25;;;10.10;99.90;;;;;;4999133;28;20065;-69
2022/12/29 01:04:10;;;;;;;3.10;2.90;;;9.80;99.90;;;;;;4982239;28;20077;-69
2022/12/29 01:06:38;;;;;;;3.45;3.15;;;10.20;99.90;;;;;;4982311;28;20037;-69
2022/12/29 01:11:49;;;;;;;3.83;3.20;;;10.00;99.90;;;;;;4981397;28;21020;-69
2022/12/29 01:14:15;;;;;;;13.43;11.77;;;10.20;99.90;;;;;;4962427;28;20510;-68
2022/12/29 01:16:41;;;;;;;15.82;14.30;;;9.80;99.90;;;;;;4966056;28;20538;-69
2022/12/29 01:19:07;;;;;;;7.65;5.93;;;9.80;99.90;;;;;;4989732;28;20069;-69
2022/12/29 01:21:33;;;;;;;2.95;2.65;;;10.00;99.90;;;;;;4980978;28;20076;-69
2022/12/29 01:23:58;;;;;;;3.92;2.33;;;10.20;99.90;;;;;;4982092;28;20056;-70
2022/12/29 01:26:24;;;;;;;2.88;2.67;;;10.20;99.90;;;;;;4934778;28;20525;-69
2022/12/29 01:28:51;;;;;;;3.35;2.83;;;10.40;99.90;;;;;;4982144;28;20038;-70
2022/12/29 01:31:17;;;;;;;3.03;2.22;;;10.10;99.90;;;;;;4956514;28;20072;-69
2022/12/29 01:33:43;;;;;;;2.95;2.13;;;10.40;99.90;;;;;;4981654;28;20862;-70
2022/12/29 01:36:12;;;;;;;3.72;2.67;;;10.40;99.90;;;;;;4964426;28;20678;-69
2022/12/29 01:38:38;;;;;;;4.20;2.72;;;10.20;99.90;;;;;;4958853;28;20104;-69
2022/12/29 01:41:06;;;;;;;5.28;2.97;;;10.00;99.90;;;;;;4998561;28;20271;-69
2022/12/29 01:44:00;;;;;;;3.25;2.70;;;10.40;99.90;;;;;;4981568;28;20807;-69
2022/12/29 01:46:32;;;;;;;3.47;3.17;;;10.20;99.90;;;;;;4978754;28;20080;-69
2022/12/29 01:48:57;;;;;;;4.07;3.00;;;10.40;99.90;;;;;;4981650;28;20048;-69
2022/12/29 01:51:26;;;;;;;3.42;3.13;;;9.90;99.90;;;;;;4998669;28;20403;-69
2022/12/29 01:53:54;;;;;;;4.78;3.33;;;10.20;99.90;;;;;;4981803;28;20076;-68
2022/12/29 01:56:21;;;;;;;3.53;2.85;;;9.90;99.90;;;;;;4981920;28;20510;-69
2022/12/29 01:58:52;;;;;;;3.20;2.90;;;10.30;99.90;;;;;;4980635;28;20052;-69
2022/12/29 02:01:20;;;;;;;4.45;3.08;;;10.40;99.90;;;;;;4979833;28;20304;-69
2022/12/29 02:03:48;;;;;;;5.10;3.20;;;9.90;99.90;;;;;;4997912;28;20466;-69
2022/12/29 02:06:23;;;;;;;4.45;4.00;;;10.10;99.90;;;;;;4999404;28;21364;-69
2022/12/29 02:08:50;;;;;;;5.30;3.80;;;9.90;99.90;;;;;;4954037;28;20085;-68
2022/12/29 02:11:17;;;;;;;7.97;5.00;;;10.20;99.90;;;;;;4980037;28;20038;-68
2022/12/29 02:13:42;;;;;;;6.00;5.07;;;9.90;99.90;;;;;;4963959;28;20041;-70
2022/12/29 02:16:29;;;;;;;5.90;5.30;;;9.60;99.90;;;;;;4968577;28;20034;-68
2022/12/29 02:19:04;;;;;;;6.05;5.45;;;10.30;99.90;;;;;;4965276;28;20045;-69
2022/12/29 02:21:56;;;;;;;5.15;4.75;;;10.30;99.90;;;;;;4997129;28;20085;-69
2022/12/29 02:25:02;;;;;;;5.90;5.40;;;9.80;99.90;;;;;;4981285;28;20132;-69
2022/12/29 02:27:49;;;;;;;7.18;4.43;;;10.30;99.90;;;;;;4979288;28;20049;-69
2022/12/29 02:30:33;;;;;;;4.85;4.13;;;10.20;99.90;;;;;;4998357;28;20061;-69
2022/12/29 02:33:13;;;;;;;5.07;3.83;;;9.50;99.90;;;;;;4997716;28;20103;-69
2022/12/29 02:35:55;;;;;;;3.17;2.88;;;9.80;99.90;;;;;;4981250;28;20558;-69
2022/12/29 02:39:02;;;;;;;3.53;2.80;;;9.70;99.90;;;;;;4980989;28;20450;-69
2022/12/29 02:41:33;;;;;;;3.40;2.60;;;9.60;99.90;;;;;;4936930;29;20054;-70
2022/12/29 02:44:12;;;;;;;3.83;2.85;;;10.20;99.90;;;;;;4987925;28;20420;-70
2022/12/29 02:46:46;;;;;;;2.92;2.00;;;9.60;99.90;;;;;;4980965;28;20080;-70
2022/12/29 02:49:34;;;;;;;2.70;2.17;;;10.20;99.90;;;;;;4980427;28;20042;-70
2022/12/29 02:52:05;;;;;;;3.00;2.20;;;10.20;99.90;;;;;;4981455;28;20543;-70
2022/12/29 02:54:41;;;;;;;3.65;2.60;;;9.90;99.90;;;;;;4959293;28;20112;-68
2022/12/29 02:57:32;;;;;;;3.00;2.30;;;9.70;99.90;;;;;;4964855;28;20050;-69
2022/12/29 03:00:07;;;;;;;3.50;2.65;;;10.30;99.90;;;;;;4981007;28;20136;-70
2022/12/29 03:03:02;;;;;;;3.55;2.35;;;10.40;99.90;;;;;;4980120;28;20347;-69
2022/12/29 03:05:33;;;;;;;4.78;2.80;;;9.80;99.90;;;;;;4980016;28;20041;-70
2022/12/29 03:08:09;;;;;;;4.22;3.33;;;10.20;99.90;;;;;;4980330;28;20125;-70
2022/12/29 03:11:00;;;;;;;3.38;1.92;;;10.20;99.90;;;;;;4980017;28;20116;-69
2022/12/29 03:16:32;;;;;;;3.92;2.58;;;9.90;99.90;;;;;;4980499;28;20042;-69
2022/12/29 03:19:06;;;;;;;2.40;2.03;;;9.60;99.90;;;;;;4979218;28;20073;-70
2022/12/29 03:24:38;;;;;;;3.85;2.00;;;10.20;99.90;;;;;;4979547;28;20503;-69
2022/12/29 03:27:06;;;;;;;1.67;1.10;;;10.20;99.90;;;;;;4963968;28;20129;-69
2022/12/29 03:29:38;;;;;;;3.00;1.45;;;9.80;99.90;;;;;;4979692;28;20056;-69
2022/12/29 03:32:06;;;;;;;2.63;1.35;;;10.20;99.90;;;;;;4980492;28;20367;-69
2022/12/29 03:34:33;;;;;;;3.05;1.30;;;9.70;99.90;;;;;;4979418;28;20408;-70
2022/12/29 03:37:04;;;;;;;2.90;1.23;;;9.70;99.90;;;;;;4980535;28;20053;-69
2022/12/29 03:39:31;;;;;;;2.28;1.10;;;9.90;99.90;;;;;;4979535;28;20819;-70
2022/12/29 03:42:04;;;;;;;2.13;0.98;;;9.80;99.90;;;;;;4947025;28;20057;-70
2022/12/29 03:44:36;;;;;;;2.05;0.75;;;9.80;99.90;;;;;;4979585;28;20154;-70
2022/12/29 03:47:03;;;;;;;1.40;0.90;;;10.00;99.90;;;;;;4979693;28;20045;-68
2022/12/29 03:49:29;;;;;;;1.65;0.63;;;10.40;99.90;;;;;;4979032;28;20138;-69
2022/12/29 03:51:55;;;;;;;2.08;0.60;;;10.10;99.90;;;;;;4978468;28;20213;-68
2022/12/29 03:54:21;;;;;;;1.77;0.50;;;10.30;99.90;;;;;;4968718;28;20571;-70
2022/12/29 03:56:47;;;;;;;3.05;0.40;;;10.20;99.90;;;;;;4980115;28;20045;-70
2022/12/29 03:59:12;;;;;;;3.50;0.50;;;10.40;99.90;;;;;;4970117;28;20042;-69
2022/12/29 04:01:38;;;;;;;2.38;0.45;;;10.10;99.90;;;;;;4962473;28;21634;-69
2022/12/29 04:04:04;;;;;;;2.22;0.57;;;10.30;99.90;;;;;;4961537;28;20176;-70
2022/12/29 04:06:29;;;;;;;3.72;0.65;;;10.10;99.90;;;;;;4980582;28;20041;-69
2022/12/29 04:08:55;;;;;;;2.10;0.38;;;10.00;99.90;;;;;;4978691;28;20045;-70
2022/12/29 04:11:21;;;;;;;2.50;0.47;;;10.10;99.90;;;;;;4981561;28;20033;-70
2022/12/29 04:13:47;;;;;;;2.00;0.30;;;10.00;99.90;;;;;;4978575;28;20665;-70
2022/12/29 04:16:13;;;;;;;2.55;0.40;;;10.20;99.90;;;;;;4980166;28;20301;-69
2022/12/29 04:18:38;;;;;;;2.35;0.32;;;9.80;99.90;;;;;;4963706;28;20049;-69
2022/12/29 04:21:05;;;;;;;2.13;0.45;;;9.80;99.90;;;;;;4995227;28;21525;-70
2022/12/29 04:23:33;;;;;;;2.33;0.40;;;10.10;99.90;;;;;;4936784;28;20088;-68
2022/12/29 04:25:59;;;;;;;2.05;0.40;;;10.10;99.90;;;;;;4996166;28;20423;-69
2022/12/29 04:28:25;;;;;;;3.42;0.50;;;10.00;99.90;;;;;;4977517;28;20034;-68
2022/12/29 04:30:51;;;;;;;1.70;0.35;;;9.90;99.90;;;;;;4996002;28;20069;-69
2022/12/29 04:33:17;;;;;;;2.50;0.60;;;9.90;99.90;;;;;;4970428;28;20061;-68
2022/12/29 04:35:43;;;;;;;1.88;0.32;;;10.30;99.90;;;;;;4952404;28;20045;-69
2022/12/29 04:38:09;;;;;;;4.75;0.80;;;10.00;99.90;;;;;;4996176;28;20452;-69
2022/12/29 04:40:35;;;;;;;3.15;0.50;;;10.00;99.90;;;;;;4983288;28;20121;-68
2022/12/29 04:43:01;;;;;;;2.45;0.35;;;10.10;99.90;;;;;;4979256;28;20073;-68
2022/12/29 04:45:26;;;;;;;2.88;0.40;;;10.30;99.90;;;;;;4996590;28;20076;-68
2022/12/29 04:47:52;;;;;;;4.57;0.55;;;10.10;99.90;;;;;;4978920;28;20511;-68
2022/12/29 04:50:18;;;;;;;2.42;0.38;;;10.10;99.90;;;;;;4984924;28;20068;-68
2022/12/29 04:52:43;;;;;;;3.42;0.50;;;10.10;99.90;;;;;;4931948;28;20046;-68
2022/12/29 04:55:09;;;;;;;4.35;0.40;;;10.20;99.90;;;;;;4978682;28;20050;-69
2022/12/29 04:57:35;;;;;;;3.78;0.40;;;10.10;99.90;;;;;;4952356;28;20523;-69
2022/12/29 05:00:01;;;;;;;5.93;0.50;;;10.10;99.90;;;;;;4997012;28;20041;-68
2022/12/29 05:02:27;;;;;;;4.43;0.50;;;10.30;99.90;;;;;;4978828;28;20298;-69
2022/12/29 05:04:52;;;;;;;4.65;0.32;;;10.30;99.90;;;;;;4952480;28;20050;-66
2022/12/29 05:07:18;;;;;;;5.88;0.32;;;10.40;99.90;;;;;;4954217;28;20367;-65
2022/12/29 05:09:44;;;;;;;3.72;0.30;;;10.40;99.90;;;;;;4978992;28;20392;-66
2022/12/29 05:12:10;;;;;;;2.58;0.30;;;10.30;99.90;;;;;;4979491;28;20045;-66
2022/12/29 05:14:35;;;;;;;6.88;0.45;;;10.30;99.90;;;;;;4963164;28;20488;-66
2022/12/29 05:17:01;;;;;;;4.18;0.50;;;10.20;99.90;;;;;;4995945;28;20038;-65
2022/12/29 05:19:27;;;;;;;6.38;0.50;;;10.20;99.90;;;;;;4936862;28;20037;-68
2022/12/29 05:21:52;;;;;;;6.03;0.50;;;10.10;99.90;;;;;;4954167;28;20049;-68
2022/12/29 05:24:18;;;;;;;5.40;0.60;;;10.10;99.90;;;;;;4969435;28;20124;-67
2022/12/29 05:26:44;;;;;;;11.40;0.88;;;10.10;71.60;;;;;;4981414;28;20052;-68
2022/12/29 05:29:09;;;;;;;6.53;0.63;;;10.10;99.90;;;;;;4974100;28;20045;-68
2022/12/29 05:31:35;;;;;;;6.65;0.50;;;10.00;90.70;;;;;;4965819;28;20080;-65
2022/12/29 05:34:01;;;;;;;8.98;0.95;;;9.90;1.00;;;;;;4982193;28;20104;-67
2022/12/29 05:36:27;;;;;;;11.90;0.90;;;9.80;99.90;;;;;;4963709;28;20249;-67
2022/12/29 05:38:56;;;;;;;9.55;0.95;;;9.80;65.40;;;;;;4964018;28;20054;-66
2022/12/29 05:41:22;;;;;;;9.13;0.93;;;9.80;99.90;;;;;;4955475;28;20060;-66
2022/12/29 05:43:47;;;;;;;11.13;1.05;;;9.80;99.90;;;;;;4974227;28;20033;-66
2022/12/29 05:46:13;;;;;;;10.10;0.65;;;9.70;99.90;;;;;;4939191;28;20084;-65
2022/12/29 05:48:39;;;;;;;5.78;0.50;;;9.60;99.90;;;;;;4999618;28;20058;-66
2022/12/29 05:51:05;;;;;;;9.15;0.70;;;9.60;80.10;;;;;;4960228;28;20060;-66
2022/12/29 05:53:30;;;;;;;10.55;0.80;;;9.70;99.90;;;;;;4982158;28;20042;-65
2022/12/29 05:55:56;;;;;;;9.18;0.70;;;9.70;66.60;;;;;;4981442;28;20053;-66
2022/12/29 05:58:22;;;;;;;10.63;0.90;;;9.70;90.60;;;;;;4981260;28;20313;-67
2022/12/29 06:00:47;;;;;;;8.40;0.88;;;9.60;33.70;;;;;;4979479;28;20050;-66
2022/12/29 06:03:13;;;;;;;9.05;0.75;;;9.60;79.00;;;;;;4959426;28;20145;-65
2022/12/29 06:05:39;;;;;;;10.15;0.77;;;9.60;73.00;;;;;;4980575;28;20492;-66
2022/12/29 06:08:04;;;;;;;10.07;0.70;;;9.60;70.50;;;;;;4982099;28;20099;-65
2022/12/29 06:10:30;;;;;;;10.38;0.50;;;9.60;99.90;;;;;;4981846;28;20097;-65
2022/12/29 06:12:56;;;;;;;13.05;1.52;;;9.60;99.90;;;;;;4981703;28;20459;-65
2022/12/29 06:15:22;;;;;;;10.80;0.93;;;9.70;99.90;;;;;;4964574;28;20053;-67
2022/12/29 06:17:47;;;;;;;10.15;0.73;;;9.70;99.90;;;;;;4985380;28;20724;-65
2022/12/29 06:20:13;;;;;;;9.23;1.25;;;9.70;70.30;;;;;;4998852;28;20044;-66
2022/12/29 06:22:39;;;;;;;9.70;1.13;;;9.70;99.90;;;;;;4963473;28;20494;-67
2022/12/29 06:25:05;;;;;;;7.63;0.82;;;9.60;74.40;;;;;;4989869;28;20396;-66
2022/12/29 06:27:31;;;;;;;13.95;1.10;;;9.60;78.40;;;;;;4980773;28;20053;-66
2022/12/29 06:29:57;;;;;;;10.25;0.70;;;9.70;84.90;;;;;;4980866;28;20041;-66
2022/12/29 06:32:22;;;;;;;5.90;0.85;;;9.60;20.00;;;;;;4987767;28;21000;-66
2022/12/29 06:34:48;;;;;;;12.65;0.90;;;9.70;92.30;;;;;;4964872;28;20044;-65
2022/12/29 06:37:14;;;;;;;8.73;0.73;;;9.70;99.90;;;;;;4965999;28;20045;-65
2022/12/29 06:39:40;;;;;;;7.32;0.80;;;9.70;2.70;;;;;;4998111;28;20046;-65
2022/12/29 06:42:06;;;;;;;8.32;1.10;;;9.70;47.50;;;;;;4981356;28;20038;-65
2022/12/29 06:44:32;;;;;;;8.38;0.93;;;9.70;98.80;;;;;;4980329;28;20089;-66
2022/12/29 06:46:57;;;;;;;8.13;0.98;;;9.70;44.30;;;;;;4997442;28;20529;-65
2022/12/29 06:49:23;;;;;;;11.18;1.27;;;9.70;1.00;;;;;;4981249;28;20042;-67
2022/12/29 06:51:49;;;;;;;12.40;1.23;;;9.60;25.70;;;;;;4981532;28;20543;-64
2022/12/29 06:54:15;;;;;;;11.57;1.05;;;9.60;1.00;;;;;;4997979;28;20491;-65
2022/12/29 06:56:41;;;;;;;12.43;1.20;;;9.60;1.00;;;;;;4964904;28;20050;-65
2022/12/29 06:59:06;;;;;;;10.60;1.10;;;9.60;1.00;;;;;;4998258;28;20042;-64
2022/12/29 07:01:32;;;;;;;10.68;1.00;;;9.50;1.00;;;;;;4980494;28;20145;-65
2022/12/29 07:03:58;;;;;;;9.23;0.85;;;9.50;1.00;;;;;;4997365;28;20097;-64
2022/12/29 07:06:24;;;;;;;9.32;1.13;;;9.50;99.90;;;;;;4981942;28;20045;-66
2022/12/29 07:08:49;;;;;;;9.15;0.93;;;9.50;1.00;;;;;;4999649;28;20038;-65
2022/12/29 07:11:15;;;;;;;14.27;1.23;;;9.50;99.90;;;;;;4996374;28;20395;-65
2022/12/29 07:13:41;;;;;;;14.82;1.20;;;9.40;1.00;;;;;;4980072;28;20038;-66
2022/12/29 07:16:07;;;;;;;12.52;1.10;;;9.30;1.00;;;;;;4996993;28;20116;-65
2022/12/29 07:18:33;;;;;;;14.45;1.20;;;9.40;1.00;;;;;;4979844;28;20614;-66
2022/12/29 07:20:59;;;;;;;10.95;1.10;;;9.20;1.00;;;;;;4997894;28;20050;-64
2022/12/29 07:23:24;;;;;;;16.52;1.65;;;9.20;1.00;;;;;;4939506;28;20044;-66
2022/12/29 07:25:58;;;;;;;12.43;1.08;;;9.30;1.00;;;;;;4982102;28;20096;-66
2022/12/29 07:28:23;;;;;;;14.50;2.00;;;9.30;1.00;;;;;;5001406;28;20491;-66
2022/12/29 07:30:49;;;;;;;14.85;1.30;;;9.40;1.00;;;;;;4982505;28;20042;-65
2022/12/29 07:33:15;;;;;;;11.50;0.90;;;9.40;1.00;;;;;;4978978;28;20421;-65
2022/12/29 07:35:40;;;;;;;11.18;1.15;;;9.40;1.00;;;;;;4951334;28;20103;-65
2022/12/29 07:38:06;;;;;;;12.80;1.35;;;9.30;1.00;;;;;;4979700;28;20042;-64
2022/12/29 07:40:31;;;;;;;15.82;2.25;;;9.40;1.00;;;;;;4963588;28;20037;-65
2022/12/29 07:42:57;;;;;;;9.93;0.90;;;9.40;1.00;;;;;;4971284;28;20127;-64
2022/12/29 07:45:23;;;;;;;13.25;1.00;;;9.40;99.90;;;;;;4996998;28;20034;-66
2022/12/29 07:47:49;;;;;;;13.95;1.27;;;9.40;1.00;;;;;;4970658;28;20543;-67
2022/12/29 07:50:15;;;;;;;9.00;1.00;;;9.40;99.90;;;;;;4978994;28;20350;-67
2022/12/29 07:52:41;;;;;;;12.32;1.38;;;9.40;1.00;;;;;;4979275;28;20064;-66
2022/12/29 07:55:07;;;;;;;12.93;1.52;;;9.40;1.00;;;;;;4938506;28;20038;-66
2022/12/29 07:57:32;;;;;;;12.00;1.40;;;9.50;1.00;;;;;;4965061;28;20042;-67
2022/12/29 07:59:58;;;;;;;15.13;1.17;;;9.50;99.90;;;;;;4951865;28;20692;-66
2022/12/29 08:02:25;;;;;;;13.32;0.93;;;9.50;1.00;;;;;;4978987;28;20049;-66
2022/12/29 08:04:51;;;;;;;13.20;1.52;;;9.50;99.90;;;;;;4997247;28;20046;-66
2022/12/29 08:07:18;;;;;;;11.63;1.30;;;9.60;99.90;;;;;;4997217;28;20104;-67
2022/12/29 08:09:44;;;;;;;12.20;1.70;;;9.60;1.00;;;;;;4952889;28;20057;-64
2022/12/29 08:12:12;;;;;;;13.35;1.58;;;9.60;1.00;;;;;;4978954;28;20041;-63
2022/12/29 08:14:38;;;;;;;10.18;1.35;;;9.60;99.90;;;;;;4979083;28;20536;-63
2022/12/29 08:17:04;;;;;;;12.45;1.95;;;9.50;99.90;;;;;;4997779;28;20388;-64
2022/12/29 08:19:29;;;;;;;11.75;1.38;;;9.60;1.00;;;;;;4979242;28;20093;-65
2022/12/29 08:21:55;;;;;;;11.88;1.70;;;9.50;1.00;;;;;;4963488;28;20038;-65
2022/12/29 08:24:21;;;;;;;13.38;1.75;;;9.40;1.00;;;;;;4979714;28;20053;-65
2022/12/29 08:26:47;;;;;;;14.23;1.65;;;9.10;3.00;;;;;;4979349;28;20034;-65
2022/12/29 08:29:12;;;;;;;17.27;1.67;;;9.10;59.00;;;;;;4997472;28;20511;-66
2022/12/29 08:31:38;;;;;;;13.40;1.45;;;9.00;96.00;;;;;;4996544;28;20041;-66
2022/12/29 08:34:04;;;;;;;14.52;1.65;;;9.00;99.90;;;;;;4978499;28;20054;-67
2022/12/29 08:36:30;;;;;;;16.95;2.08;;;9.10;98.00;;;;;;4962480;28;20103;-65
2022/12/29 08:38:57;;;;;;;12.60;1.67;;;9.00;99.90;;;;;;4978834;28;20299;-66
2022/12/29 08:41:22;;;;;;;11.50;1.10;;;9.10;1.00;;;;;;4953163;28;20053;-65
2022/12/29 08:43:49;;;;;;;14.18;1.85;;;9.10;91.40;;;;;;4995632;28;20046;-66
2022/12/29 08:46:16;;;;;;;17.10;1.60;;;9.20;97.70;;;;;;4997037;28;20443;-67
2022/12/29 08:48:42;;;;;;;15.15;1.85;;;9.30;57.80;;;;;;4979435;28;20552;-64
2022/12/29 08:51:07;;;;;;;19.08;2.15;;;9.20;1.00;;;;;;4997323;28;20045;-67
2022/12/29 08:53:34;;;;;;;15.77;1.98;;;9.30;1.00;;;;;;4954651;28;20045;-66
2022/12/29 08:56:00;;;;;;;14.98;1.50;;;9.30;1.00;;;;;;4981000;28;20404;-67
2022/12/29 08:58:27;;;;;;;17.15;2.17;;;9.20;1.00;;;;;;4999768;28;20125;-67
2022/12/29 09:00:54;;;;;;;19.10;2.42;;;9.00;65.20;;;;;;4973955;28;20384;-69
2022/12/29 09:03:21;;;;;;;18.40;2.40;;;8.90;99.90;;;;;;4982355;28;20062;-66
2022/12/29 09:05:51;;;;;;;24.67;2.33;;;8.80;99.90;;;;;;5000610;28;20076;-70
2022/12/29 09:08:17;;;;;;;17.95;1.85;;;8.70;99.90;;;;;;4985589;28;20505;-69
2022/12/29 09:10:43;;;;;;;19.00;2.33;;;8.60;99.90;;;;;;5001692;28;20276;-70
2022/12/29 09:13:10;;;;;;;14.90;1.77;;;8.50;99.90;;;;;;4984097;28;20135;-67
2022/12/29 09:15:36;;;;;;;16.85;2.00;;;8.60;99.90;;;;;;5001313;28;20045;-68
2022/12/29 09:18:02;;;;;;;16.30;1.65;;;8.60;99.90;;;;;;4960958;28;20049;-68
2022/12/29 09:20:27;;;;;;;17.90;1.95;;;8.60;99.90;;;;;;4963520;28;20116;-68
2022/12/29 09:22:53;;;;;;;18.02;2.13;;;8.70;99.90;;;;;;5001170;28;20049;-67
2022/12/29 09:25:19;;;;;;;19.17;1.85;;;8.90;99.90;;;;;;4968363;28;20124;-67
2022/12/29 09:27:47;;;;;;;18.00;2.58;;;9.00;99.90;;;;;;4982836;28;20046;-67
2022/12/29 09:30:14;;;;;;;22.60;2.22;;;9.10;99.90;;;;;;4983737;28;20419;-68
2022/12/29 09:32:40;;;;;;;19.98;2.55;;;9.00;99.90;;;;;;4999215;28;20210;-67
2022/12/29 09:35:06;;;;;;;18.92;1.73;;;8.90;99.90;;;;;;4983192;28;20125;-68
2022/12/29 09:37:32;;;;;;;23.52;3.33;;;9.00;99.90;;;;;;5001207;28;20172;-67
2022/12/29 09:39:58;;;;;;;18.05;2.05;;;8.90;99.90;;;;;;4983150;28;20041;-67
2022/12/29 09:42:50;;;;;;;17.08;1.80;;;8.90;99.90;;;;;;4983392;28;20656;-67
2022/12/29 09:45:50;;;;;;;13.27;1.63;;;8.80;99.90;;;;;;4983735;28;20069;-69
2022/12/29 09:48:39;;;;;;;16.33;2.10;;;9.00;99.90;;;;;;5002702;28;20029;-66
2022/12/29 09:51:11;;;;;;;20.40;2.90;;;9.00;99.90;;;;;;5003993;28;20042;-68
2022/12/29 09:53:46;;;;;;;12.10;1.50;;;9.10;99.90;;;;;;4985058;28;20101;-67
2022/12/29 09:56:19;;;;;;;15.18;2.05;;;9.10;99.90;;;;;;5001866;28;20057;-68
2022/12/29 09:58:55;;;;;;;13.65;1.75;;;9.20;99.90;;;;;;5003383;28;20056;-67
2022/12/29 10:01:32;;;;;;;16.25;1.80;;;9.20;99.90;;;;;;5002392;28;20407;-66
2022/12/29 10:04:02;;;;;;;13.15;1.90;;;9.00;99.90;;;;;;4971270;28;20041;-65
2022/12/29 10:06:37;;;;;;;18.58;1.80;;;9.10;99.90;;;;;;5004883;28;20468;-66
2022/12/29 10:09:23;;;;;;;15.52;1.60;;;9.00;99.90;;;;;;5003694;28;20381;-66
2022/12/29 10:12:22;;;;;;;13.65;1.80;;;9.20;99.90;;;;;;4986569;28;20053;-66
2022/12/29 10:15:03;;;;;;;12.27;1.08;;;9.20;99.90;;;;;;4987730;28;20149;-66
2022/12/29 10:18:04;;;;;;;12.23;1.73;;;9.20;99.90;;;;;;5002012;28;20049;-65
2022/12/29 10:20:54;;;;;;;17.67;1.80;;;9.30;99.90;;;;;;4961831;28;20042;-66
2022/12/29 10:23:42;;;;;;;15.93;1.50;;;9.40;1.00;;;;;;4996217;28;20141;-65
2022/12/29 10:26:33;;;;;;;14.07;1.27;;;9.10;99.90;;;;;;5003388;28;20042;-65
2022/12/29 10:29:06;;;;;;;10.13;0.95;;;9.20;99.90;;;;;;4995587;28;20057;-65
2022/12/29 10:31:49;;;;;;;8.93;0.82;;;9.20;99.90;;;;;;5002486;28;20443;-66
2022/12/29 10:34:36;;;;;;;12.02;1.30;;;9.00;99.90;;;;;;5003593;28;20448;-66
2022/12/29 10:37:22;;;;;;;12.52;1.23;;;9.10;99.90;;;;;;5002813;28;20132;-65
2022/12/29 10:39:55;;;;;;;9.55;1.23;;;8.80;99.90;;;;;;5002678;28;20095;-66
2022/12/29 10:42:40;;;;;;;9.48;1.67;;;8.80;99.90;;;;;;5002755;28;20634;-65
2022/12/29 10:45:13;;;;;;;12.23;1.35;;;8.80;99.90;;;;;;5002926;28;20049;-65
2022/12/29 10:47:51;;;;;;;16.83;2.05;;;8.70;99.90;;;;;;5003083;28;20040;-66
2022/12/29 10:50:17;;;;;;;14.40;0.82;;;8.50;99.90;;;;;;5002753;28;20065;-65
2022/12/29 10:52:43;;;;;;;15.98;1.52;;;8.80;99.90;;;;;;5003411;28;20054;-64
2022/12/29 10:55:27;;;;;;;10.57;1.02;;;8.90;99.90;;;;;;4987147;28;20041;-66
2022/12/29 10:57:57;;;;;;;15.55;1.52;;;8.10;99.90;;;;;;5000926;28;20107;-65
2022/12/29 11:00:22;;;;;;;14.73;1.10;;;8.20;99.90;;;;;;5000859;28;20384;-65
2022/12/29 11:02:51;;;;;;;16.65;1.52;;;8.20;99.90;;;;;;5002209;28;20104;-65
2022/12/29 11:05:26;;;;;;;11.35;1.00;;;8.60;99.90;;;;;;5002088;28;20045;-66
2022/12/29 11:07:57;;;;;;;9.90;1.13;;;8.00;99.90;;;;;;4999946;28;20151;-65
2022/12/29 11:10:42;;;;;;;13.27;1.17;;;8.10;99.90;;;;;;5001251;28;20447;-66
2022/12/29 11:13:25;;;;;;;14.23;1.58;;;8.10;99.90;;;;;;5001393;28;20034;-67
2022/12/29 11:15:51;;;;;;;18.30;1.25;;;8.10;99.90;;;;;;5000478;28;20096;-66
2022/12/29 11:18:19;;;;;;;14.13;1.30;;;8.30;99.90;;;;;;5001038;28;20124;-65
2022/12/29 11:20:44;;;;;;;18.50;2.15;;;8.80;99.90;;;;;;4998171;28;20574;-66
2022/12/29 11:23:30;;;;;;;19.20;2.22;;;8.80;99.90;;;;;;5000980;28;20041;-67
2022/12/29 11:26:09;;;;;;;21.95;2.92;;;8.70;99.90;;;;;;4999350;28;20049;-66
2022/12/29 11:28:36;;;;;;;22.58;2.70;;;8.60;99.90;;;;;;4998198;28;20073;-66
2022/12/29 11:31:04;;;;;;;19.92;2.47;;;8.70;99.90;;;;;;4997964;28;20038;-67
2022/12/29 11:33:31;;;;;;;22.85;2.63;;;8.70;99.90;;;;;;4999068;28;20119;-67
2022/12/29 11:36:20;;;;;;;23.08;3.00;;;8.90;99.90;;;;;;5000332;28;20056;-66
2022/12/29 11:38:52;;;;;;;24.92;2.88;;;8.50;99.90;;;;;;5001886;28;20054;-66
2022/12/29 11:41:27;;;;;;;25.40;3.10;;;8.70;99.90;;;;;;5000966;28;20116;-67
2022/12/29 11:43:55;;;;;;;19.17;2.30;;;8.50;99.90;;;;;;5002819;28;20050;-66
2022/12/29 11:46:27;;;;;;;22.45;2.47;;;9.10;99.90;;;;;;4968502;28;20050;-65
2022/12/29 11:48:58;;;;;;;15.05;2.17;;;8.70;99.90;;;;;;4984617;28;20045;-66
2022/12/29 11:51:27;;;;;;;20.88;3.00;;;8.70;99.90;;;;;;4999706;28;20531;-66
2022/12/29 11:54:02;;;;;;;23.05;2.60;;;8.80;99.90;;;;;;5001113;28;20046;-66
2022/12/29 11:56:46;;;;;;;20.50;2.47;;;9.00;99.90;;;;;;5000799;28;20777;-66
2022/12/29 11:59:24;;;;;;;25.15;3.55;;;9.00;99.90;;;;;;4984182;28;20057;-66
2022/12/29 12:01:50;;;;;;;24.92;3.58;;;9.00;99.90;;;;;;5000380;28;20057;-66
2022/12/29 12:04:23;;;;;;;17.20;2.40;;;8.90;99.90;;;;;;5016258;28;20582;-66
2022/12/29 12:07:07;;;;;;;17.63;2.30;;;9.00;99.90;;;;;;5002186;28;20042;-66
2022/12/29 12:09:44;;;;;;;23.13;4.38;;;8.90;99.90;;;;;;5001615;28;20041;-68
2022/12/29 12:12:24;;;;;;;21.05;2.45;;;8.90;99.90;;;;;;5001607;28;20046;-66
2022/12/29 12:15:01;;;;;;;25.23;3.22;;;9.10;99.90;;;;;;4998240;28;20113;-67
2022/12/29 12:17:45;;;;;;;26.85;3.13;;;9.20;99.90;;;;;;4996179;28;20504;-66
2022/12/29 12:20:21;;;;;;;;;;;9.10;99.90;;;;;;4998400;28;20049;-66
2022/12/29 12:23:32;;;;;;;21.73;2.25;;;8.90;99.90;;;;;;4997456;28;19921;-66
2022/12/29 12:26:27;;;;;;;22.42;2.33;;;8.90;99.90;;;;;;4985226;28;20046;-66
2022/12/29 12:29:00;;;;;;;21.95;2.88;;;8.80;99.90;;;;;;4997632;28;20512;-66
2022/12/29 12:31:51;;;;;;;28.63;6.00;;;8.60;99.90;;;;;;4999553;28;20050;-67
2022/12/29 12:34:32;;;;;;;22.40;2.85;;;8.90;99.90;;;;;;5001758;28;20046;-66
2022/12/29 12:37:18;;;;;;;14.57;1.48;;;8.80;99.90;;;;;;4990061;28;20061;-66
2022/12/29 12:39:44;;;;;;;16.73;2.28;;;8.90;99.90;;;;;;4975628;28;20046;-67
2022/12/29 12:42:38;;;;;;;15.25;1.85;;;8.40;99.90;;;;;;5002105;28;20127;-66
2022/12/29 12:45:26;;;;;;;28.40;3.35;;;8.40;99.90;;;;;;5002305;28;20053;-67
2022/12/29 12:48:00;;;;;;;23.58;2.25;;;8.30;99.90;;;;;;5000077;28;20042;-66
2022/12/29 12:51:08;;;;;;;23.27;3.30;;;8.60;99.90;;;;;;5000704;28;20567;-66
2022/12/29 12:53:36;;;;;;;26.33;2.90;;;8.50;99.90;;;;;;4944265;28;20135;-65
2022/12/29 12:56:27;;;;;;;19.58;2.88;;;8.50;99.90;;;;;;4988468;28;20061;-66
2022/12/29 12:59:02;;;;;;;14.60;2.05;;;8.70;99.90;;;;;;5003020;28;20064;-65
2022/12/29 13:01:54;;;;;;;15.43;1.75;;;8.90;99.90;;;;;;5001801;28;20703;-65
2022/12/29 13:04:42;;;;;;;15.88;1.80;;;9.00;99.90;;;;;;5001895;28;20044;-66
2022/12/29 13:07:36;;;;;;;9.05;1.20;;;9.20;99.90;;;;;;5004306;28;20136;-66
2022/12/29 13:10:06;;;;;;;10.55;1.00;;;9.20;99.90;;;;;;5001886;28;20432;-66
2022/12/29 13:12:49;;;;;;;14.23;1.40;;;9.20;99.90;;;;;;5015692;28;20335;-67
2022/12/29 13:15:32;;;;;;;;;;;9.30;1.00;;;;;;4998999;28;20042;-66
2022/12/29 13:17:57;;;;;;;12.10;1.45;;;9.40;2.80;;;;;;5000839;28;19918;-66
2022/12/29 13:20:44;;;;;;;16.77;1.77;;;9.70;18.40;;;;;;5000540;28;20038;-67
2022/12/29 13:23:15;;;;;;;8.57;1.20;;;10.20;1.00;;;;;;5000632;28;20049;-67
2022/12/29 13:25:55;;;;;;;9.85;1.40;;;10.70;1.00;;;;;;5015782;28;20042;-67
2022/12/29 13:28:36;;;;;;;12.98;1.67;;;10.60;1.00;;;;;;4983678;28;20479;-67
2022/12/29 13:31:17;;;;;;;11.20;1.40;;;10.50;99.90;;;;;;5000171;28;20052;-67
2022/12/29 13:34:30;;;;;;;13.65;1.48;;;10.20;99.90;;;;;;4983047;28;20049;-67
2022/12/29 13:36:59;;;;;;;11.97;1.30;;;9.90;99.90;;;;;;4925680;29;20130;-67
2022/12/29 13:39:33;;;;;;;15.93;1.60;;;10.00;99.90;;;;;;4909763;29;20538;-67
2022/12/29 13:42:01;;;;;;;9.48;0.75;;;9.90;99.90;;;;;;4969492;28;20085;-67
2022/12/29 13:44:44;;;;;;;15.65;1.13;;;9.70;99.90;;;;;;4999821;28;20460;-69
2022/12/29 13:47:19;;;;;;;13.68;1.20;;;9.50;99.90;;;;;;4999337;28;20073;-68
2022/12/29 13:49:45;;;;;;;8.57;0.80;;;9.50;99.90;;;;;;4998786;28;20475;-68